createdAt,value
2018-09-03T00:00:42.016Z,99165.95
2018-09-03T00:03:10.386Z,99157.50
2018-09-03T00:05:38.700Z,99153.10
2018-09-03T00:08:07.173Z,99153.39
2018-09-03T00:10:35.486Z,99149.41
2018-09-03T00:13:03.797Z,99147.22
2018-09-03T00:15:32.123Z,99137.48
2018-09-03T00:18:00.451Z,99136.30
2018-09-03T00:20:28.925Z,99128.55
2018-09-03T00:22:57.276Z,99119.48
2018-09-03T00:25:25.586Z,99113.09
2018-09-03T00:27:53.929Z,99108.72
2018-09-03T00:30:22.278Z,99110.23
2018-09-03T00:32:55.715Z,99115.61
2018-09-03T00:35:29.324Z,99115.11
2018-09-03T00:39:00.619Z,99108.87
2018-09-03T00:41:34.206Z,99105.02
2018-09-03T00:44:07.851Z,99106.23
2018-09-03T00:46:41.455Z,99100.64
2018-09-03T00:49:09.774Z,99106.19
2018-09-03T00:51:38.093Z,99104.69
2018-09-03T00:54:06.442Z,99101.66
2018-09-03T00:56:34.749Z,99098.50
2018-09-03T00:59:03.066Z,99092.58
2018-09-03T01:01:31.365Z,99090.21
2018-09-03T01:03:59.679Z,99090.56
2018-09-03T01:06:27.990Z,99093.25
2018-09-03T01:08:56.318Z,99087.19
2018-09-03T01:11:25.593Z,99079.95
2018-09-03T01:13:54.781Z,99079.28
2018-09-03T01:16:23.143Z,99078.27
2018-09-03T01:18:54.892Z,99082.81
2018-09-03T01:21:23.678Z,99086.68
2018-09-03T01:23:52.319Z,99090.89
2018-09-03T01:26:20.678Z,99100.02
2018-09-03T01:28:48.973Z,99107.58
2018-09-03T01:31:20.378Z,99094.77
2018-09-03T01:33:53.143Z,99106.75
2018-09-03T01:36:21.830Z,99098.34
2018-09-03T01:38:50.165Z,99105.23
2018-09-03T01:41:19.203Z,99105.41
2018-09-03T01:43:48.010Z,99108.59
2018-09-03T01:46:16.594Z,99097.33
2018-09-03T01:48:44.999Z,99092.45
2018-09-03T01:51:13.355Z,99093.30
2018-09-03T01:53:41.654Z,99087.91
2018-09-03T01:56:09.963Z,99088.92
2018-09-03T01:58:38.283Z,99089.77
2018-09-03T02:01:06.837Z,99086.19
2018-09-03T02:03:35.469Z,99084.20
2018-09-03T02:06:03.955Z,99083.53
2018-09-03T02:08:32.500Z,99093.97
2018-09-03T02:11:00.938Z,99095.81
2018-09-03T02:13:30.413Z,99095.64
2018-09-03T02:15:58.910Z,99094.30
2018-09-03T02:18:27.509Z,99085.01
2018-09-03T02:20:56.224Z,99086.17
2018-09-03T02:23:24.785Z,99090.22
2018-09-03T02:25:53.424Z,99084.83
2018-09-03T02:28:21.944Z,99091.68
2018-09-03T02:30:50.381Z,99087.69
2018-09-03T02:33:18.759Z,99093.28
2018-09-03T02:35:47.210Z,99084.50
2018-09-03T02:38:15.567Z,99081.45
2018-09-03T02:40:43.960Z,99077.09
2018-09-03T02:43:12.321Z,99079.45
2018-09-03T02:45:40.726Z,99077.98
2018-09-03T02:48:09.135Z,99067.84
2018-09-03T02:50:37.676Z,99070.08
2018-09-03T02:53:06.106Z,99065.50
2018-09-03T02:55:34.499Z,99070.05
2018-09-03T02:58:02.850Z,99072.22
2018-09-03T03:00:31.243Z,99070.05
2018-09-03T03:02:59.741Z,99059.31
2018-09-03T03:05:29.144Z,99058.94
2018-09-03T03:07:57.902Z,99052.72
2018-09-03T03:10:26.397Z,99045.98
2018-09-03T03:12:54.724Z,99042.99
2018-09-03T03:15:23.140Z,99041.48
2018-09-03T03:17:51.515Z,99028.53
2018-09-03T03:20:19.928Z,99039.80
2018-09-03T03:22:48.349Z,99027.18
2018-09-03T03:25:16.743Z,99030.72
2018-09-03T03:27:45.115Z,99024.33
2018-09-03T03:30:13.517Z,99035.93
2018-09-03T03:32:41.943Z,99043.16
2018-09-03T03:35:11.684Z,99034.08
2018-09-03T03:37:44.191Z,99034.75
2018-09-03T03:40:12.665Z,99034.92
2018-09-03T03:42:41.024Z,99017.09
2018-09-03T03:45:09.518Z,99012.38
2018-09-03T03:47:37.975Z,99010.83
2018-09-03T03:50:06.488Z,99010.83
2018-09-03T03:52:34.862Z,99002.12
2018-09-03T03:55:03.643Z,98996.70
2018-09-03T03:57:32.014Z,98985.95
2018-09-03T04:00:00.495Z,98975.34
2018-09-03T04:02:28.969Z,98985.61
2018-09-03T04:04:57.369Z,98985.95
2018-09-03T04:07:25.819Z,98987.93
2018-09-03T04:09:54.219Z,98986.95
2018-09-03T04:12:22.595Z,98991.66
2018-09-03T04:14:51.005Z,98992.33
2018-09-03T04:17:19.402Z,98996.03
2018-09-03T04:19:51.806Z,98995.36
2018-09-03T04:22:20.172Z,98983.25
2018-09-03T04:24:48.523Z,98981.58
2018-09-03T04:27:16.941Z,98990.82
2018-09-03T04:29:45.318Z,98988.13
2018-09-03T04:32:13.749Z,98992.84
2018-09-03T04:34:42.130Z,99003.44
2018-09-03T04:37:10.522Z,98999.70
2018-09-03T04:39:38.912Z,99005.25
2018-09-03T04:42:07.313Z,99010.80
2018-09-03T04:44:35.672Z,99016.84
2018-09-03T04:47:04.132Z,99015.16
2018-09-03T04:49:32.504Z,99010.96
2018-09-03T04:52:00.937Z,99007.94
2018-09-03T04:54:29.434Z,99009.63
2018-09-03T04:56:57.825Z,99011.67
2018-09-03T04:59:26.205Z,99010.16
2018-09-03T05:01:54.593Z,99003.77
2018-09-03T05:04:22.968Z,99015.20
2018-09-03T05:06:51.447Z,99004.95
2018-09-03T05:09:19.947Z,99005.12
2018-09-03T05:11:48.637Z,99008.01
2018-09-03T05:14:17.136Z,99004.27
2018-09-03T05:16:45.556Z,99013.53
2018-09-03T05:19:13.988Z,99022.30
2018-09-03T05:21:42.540Z,99021.12
2018-09-03T05:24:10.977Z,99031.72
2018-09-03T05:26:39.421Z,99035.93
2018-09-03T05:29:07.971Z,99034.08
2018-09-03T05:31:36.366Z,99039.97
2018-09-03T05:34:04.808Z,99033.41
2018-09-03T05:36:33.227Z,99038.45
2018-09-03T05:39:01.653Z,99034.58
2018-09-03T05:41:30.105Z,99029.03
2018-09-03T05:43:58.524Z,99026.17
2018-09-03T05:46:27.042Z,99025.33
2018-09-03T05:48:55.428Z,99020.98
2018-09-03T05:51:23.944Z,99018.46
2018-09-03T05:53:52.391Z,99017.11
2018-09-03T05:56:20.808Z,99011.06
2018-09-03T05:58:49.258Z,99010.21
2018-09-03T06:01:17.726Z,99015.77
2018-09-03T06:03:46.145Z,99018.62
2018-09-03T06:06:14.638Z,99008.03
2018-09-03T06:08:43.088Z,98992.70
2018-09-03T06:11:11.709Z,99000.15
2018-09-03T06:13:41.427Z,98995.73
2018-09-03T06:16:09.909Z,98988.34
2018-09-03T06:18:38.615Z,98984.29
2018-09-03T06:21:07.521Z,98995.23
2018-09-03T06:23:36.025Z,98998.55
2018-09-03T06:26:04.501Z,98993.33
2018-09-03T06:28:32.934Z,98982.34
2018-09-03T06:31:01.413Z,98978.19
2018-09-03T06:33:29.813Z,98979.20
2018-09-03T06:35:58.432Z,98980.16
2018-09-03T06:38:27.089Z,98979.65
2018-09-03T06:40:55.723Z,98976.75
2018-09-03T06:43:24.588Z,98979.91
2018-09-03T06:45:53.240Z,98968.88
2018-09-03T06:48:21.913Z,98970.55
2018-09-03T06:50:50.359Z,98973.61
2018-09-03T06:53:19.013Z,98973.22
2018-09-03T06:55:47.405Z,98959.31
2018-09-03T06:58:15.827Z,98953.73
2018-09-03T07:00:44.251Z,98967.14
2018-09-03T07:03:12.701Z,98970.70
2018-09-03T07:05:41.222Z,98967.92
2018-09-03T07:08:09.628Z,98963.65
2018-09-03T07:10:38.044Z,98966.06
2018-09-03T07:13:07.554Z,98959.38
2018-09-03T07:15:36.860Z,98964.58
2018-09-03T07:18:05.677Z,98950.38
2018-09-03T07:20:34.406Z,98957.23
2018-09-03T07:23:03.098Z,98950.77
2018-09-03T07:25:31.553Z,98954.83
2018-09-03T07:28:00.058Z,98964.27
2018-09-03T07:30:28.587Z,98966.75
2018-09-03T07:32:57.025Z,98980.39
2018-09-03T07:35:25.441Z,98979.95
2018-09-03T07:37:53.863Z,98980.39
2018-09-03T07:40:22.325Z,98980.39
2018-09-03T07:42:50.760Z,98976.84
2018-09-03T07:45:19.198Z,98973.65
2018-09-03T07:47:47.591Z,98971.68
2018-09-03T07:50:16.012Z,98982.15
2018-09-03T07:52:44.444Z,98981.89
2018-09-03T07:55:12.820Z,98981.09
2018-09-03T07:57:41.211Z,98978.92
2018-09-03T08:00:09.999Z,98975.18
2018-09-03T08:02:38.412Z,98976.80
2018-09-03T08:05:07.221Z,98965.44
2018-09-03T08:07:35.689Z,98967.77
2018-09-03T08:10:04.148Z,98971.28
2018-09-03T08:12:32.573Z,98969.33
2018-09-03T08:15:00.967Z,98973.84
2018-09-03T08:17:29.348Z,98973.69
2018-09-03T08:19:57.760Z,98979.11
2018-09-03T08:22:26.190Z,98973.80
2018-09-03T08:24:54.581Z,98986.01
2018-09-03T08:27:23.086Z,98984.61
2018-09-03T08:29:51.530Z,98980.65
2018-09-03T08:32:19.979Z,98981.47
2018-09-03T08:34:48.412Z,98981.47
2018-09-03T08:37:16.862Z,98979.87
2018-09-03T08:39:45.991Z,98982.98
2018-09-03T08:42:14.370Z,98989.17
2018-09-03T08:44:42.797Z,98991.09
2018-09-03T08:47:11.170Z,98988.64
2018-09-03T08:49:39.559Z,98988.08
2018-09-03T08:52:08.084Z,98991.74
2018-09-03T08:54:36.557Z,98993.44
2018-09-03T08:57:04.956Z,98992.23
2018-09-03T08:59:33.364Z,98988.34
2018-09-03T09:02:01.721Z,98993.52
2018-09-03T09:04:30.207Z,99001.17
2018-09-03T09:06:59.765Z,99003.45
2018-09-03T09:09:28.165Z,99000.86
2018-09-03T09:11:56.572Z,99003.75
2018-09-03T09:14:24.963Z,99004.22
2018-09-03T09:16:53.357Z,99000.55
2018-09-03T09:19:21.798Z,99012.94
2018-09-03T09:21:50.317Z,98995.14
2018-09-03T09:24:18.703Z,99004.27
2018-09-03T09:26:47.070Z,98999.94
2018-09-03T09:29:15.525Z,99000.80
2018-09-03T09:31:46.358Z,98999.12
2018-09-03T09:34:14.791Z,99000.61
2018-09-03T09:36:47.781Z,98996.69
2018-09-03T09:39:16.276Z,98997.43
2018-09-03T09:47:22.889Z,98990.67
2018-09-03T09:49:51.626Z,98983.88
2018-09-03T09:52:20.108Z,98980.11
2018-09-03T09:54:48.693Z,98977.91
2018-09-03T09:57:17.593Z,98979.70
2018-09-03T09:59:46.091Z,98975.69
2018-09-03T10:02:17.197Z,98977.64
2018-09-03T10:04:45.717Z,98967.84
2018-09-03T10:07:14.217Z,98966.97
2018-09-03T10:09:42.735Z,98960.69
2018-09-03T10:12:11.183Z,98959.01
2018-09-03T10:14:42.850Z,98956.28
2018-09-03T10:17:11.455Z,98958.08
2018-09-03T10:19:41.721Z,98953.70
2018-09-03T10:22:09.981Z,98962.20
2018-09-03T10:24:38.595Z,98959.56
2018-09-03T10:27:07.034Z,98963.30
2018-09-03T10:32:20.252Z,98962.66
2018-09-03T10:34:51.217Z,98955.25
2018-09-03T10:37:21.988Z,98961.69
2018-09-03T10:39:58.014Z,98961.88
2018-09-03T10:42:53.415Z,98957.52
2018-09-03T10:45:24.202Z,98952.90
2018-09-03T10:47:55.178Z,98946.16
2018-09-03T10:53:15.200Z,98950.48
2018-09-03T10:55:45.498Z,98944.44
2018-09-03T10:58:16.169Z,98947.75
2018-09-03T11:00:46.729Z,98945.12
2018-09-03T11:03:27.365Z,98947.56
2018-09-03T11:06:08.071Z,98942.47
2018-09-03T11:08:47.630Z,98947.42
2018-09-03T11:11:16.121Z,98942.05
2018-09-03T11:13:44.502Z,98945.61
2018-09-03T11:16:14.037Z,98944.28
2018-09-03T11:18:42.412Z,98946.20
2018-09-03T11:21:10.784Z,98945.23
2018-09-03T11:23:42.437Z,98942.75
2018-09-03T11:26:10.953Z,98938.31
2018-09-03T11:28:39.541Z,98933.02
2018-09-03T11:31:07.923Z,98931.61
2018-09-03T11:33:36.328Z,98926.19
2018-09-03T11:36:13.099Z,98924.68
2018-09-03T11:38:41.641Z,98915.47
2018-09-03T11:41:10.080Z,98930.49
2018-09-03T11:43:38.497Z,98924.05
2018-09-03T11:46:08.356Z,98922.30
2018-09-03T11:48:37.160Z,98914.27
2018-09-03T11:51:10.447Z,98925.89
2018-09-03T11:53:38.854Z,98924.34
2018-09-03T11:56:07.270Z,98928.48
2018-09-03T11:58:35.623Z,98917.14
2018-09-03T12:01:04.164Z,98908.78
2018-09-03T12:06:09.012Z,98904.13
2018-09-03T12:08:46.323Z,98905.66
2018-09-03T12:11:15.075Z,98903.54
2018-09-03T12:13:44.540Z,98904.16
2018-09-03T12:16:17.275Z,98895.27
2018-09-03T12:18:47.125Z,98885.89
2018-09-03T12:21:18.439Z,98892.88
2018-09-03T12:23:47.871Z,98887.85
2018-09-03T12:26:34.754Z,98890.91
2018-09-03T12:29:07.190Z,98886.48
2018-09-03T12:31:36.618Z,98884.16
2018-09-03T12:34:09.856Z,98881.59
2018-09-03T12:36:39.094Z,98872.67
2018-09-03T12:39:23.762Z,98869.06
2018-09-03T12:41:52.680Z,98862.64
2018-09-03T12:44:36.110Z,98871.80
2018-09-03T12:47:07.926Z,98861.66
2018-09-03T12:49:39.206Z,98861.35
2018-09-03T12:52:11.238Z,98864.95
2018-09-03T12:54:51.354Z,98865.48
2018-09-03T12:57:25.908Z,98855.75
2018-09-03T13:00:18.190Z,98851.67
2018-09-03T13:03:01.140Z,98853.88
2018-09-03T13:06:07.113Z,98855.08
2018-09-03T13:08:47.922Z,98853.66
2018-09-03T13:11:45.765Z,98856.90
2018-09-03T13:14:17.329Z,98858.51
2018-09-03T13:16:52.220Z,98853.52
2018-09-03T13:22:27.294Z,98845.08
2018-09-03T13:25:02.577Z,98853.13
2018-09-03T13:30:24.514Z,98852.03
2018-09-03T13:35:43.034Z,98854.57
2018-09-03T13:38:14.755Z,98854.86
2018-09-03T13:40:45.340Z,98844.13
2018-09-03T13:43:19.855Z,98850.95
2018-09-03T13:45:52.433Z,98849.72
2018-09-03T13:48:46.666Z,98843.42
2018-09-03T13:51:28.723Z,98848.91
2018-09-03T15:34:44.193Z,98832.85
2018-09-03T15:37:13.312Z,98834.61
2018-09-03T15:39:41.603Z,98836.72
2018-09-03T15:42:09.876Z,98834.20
2018-09-03T15:44:38.214Z,98839.23
2018-09-03T15:47:06.530Z,98833.67
2018-09-03T15:49:34.947Z,98831.38
2018-09-03T15:52:03.264Z,98832.74
2018-09-03T15:54:31.700Z,98828.27
2018-09-03T15:56:59.980Z,98831.91
2018-09-03T15:59:28.269Z,98829.61
2018-09-03T16:01:56.613Z,98831.91
2018-09-03T16:04:25.763Z,98828.89
2018-09-03T16:06:54.022Z,98834.41
2018-09-03T16:09:22.267Z,98826.58
2018-09-03T16:11:50.561Z,98821.72
2018-09-03T16:14:18.913Z,98823.91
2018-09-03T16:16:47.184Z,98823.52
2018-09-03T16:19:15.453Z,98824.81
2018-09-03T16:21:43.765Z,98827.00
2018-09-03T16:24:12.033Z,98822.38
2018-09-03T16:26:40.285Z,98814.27
2018-09-03T16:29:08.579Z,98816.62
2018-09-03T16:31:36.838Z,98819.72
2018-09-03T16:34:05.073Z,98817.05
2018-09-03T16:36:33.356Z,98815.85
2018-09-03T16:39:01.677Z,98815.27
2018-09-03T16:41:30.408Z,98815.11
2018-09-03T16:43:58.700Z,98817.30
2018-09-03T16:46:27.109Z,98820.95
2018-09-03T16:48:55.622Z,98822.94
2018-09-03T16:51:25.344Z,98820.78
2018-09-03T16:53:53.664Z,98829.13
2018-09-03T16:56:32.261Z,98828.61
2018-09-03T16:59:00.705Z,98820.31
2018-09-03T17:01:29.188Z,98817.80
2018-09-03T17:03:57.384Z,98813.98
2018-09-03T17:06:25.681Z,98819.77
2018-09-03T17:08:54.146Z,98814.98
2018-09-03T17:11:22.405Z,98821.10
2018-09-03T17:13:50.732Z,98816.87
2018-09-03T17:16:19.043Z,98820.39
2018-09-03T17:18:47.417Z,98827.69
2018-09-03T17:21:15.701Z,98818.86
2018-09-03T17:23:44.157Z,98825.87
2018-09-03T17:26:12.522Z,98824.14
2018-09-03T17:28:40.898Z,98824.77
2018-09-03T17:31:09.164Z,98824.28
2018-09-03T17:33:37.526Z,98828.60
2018-09-03T17:36:06.065Z,98831.97
2018-09-03T17:38:34.668Z,98831.97
2018-09-03T17:41:03.039Z,98830.61
2018-09-03T17:43:31.602Z,98826.03
2018-09-03T17:45:59.920Z,98828.79
2018-09-03T17:48:28.266Z,98825.89
2018-09-03T17:50:56.732Z,98832.55
2018-09-03T17:53:25.228Z,98830.44
2018-09-03T17:55:54.200Z,98832.55
2018-09-03T17:58:22.508Z,98834.70
2018-09-03T18:00:50.865Z,98831.98
2018-09-03T18:03:19.241Z,98832.67
2018-09-03T18:05:47.793Z,98837.09
2018-09-03T18:08:16.106Z,98827.33
2018-09-03T18:10:46.617Z,98837.52
2018-09-03T18:13:15.169Z,98832.19
2018-09-03T18:15:43.553Z,98832.45
2018-09-03T18:18:12.653Z,98837.74
2018-09-03T18:20:40.984Z,98840.77
2018-09-03T18:23:09.294Z,98838.01
2018-09-03T18:25:39.233Z,98837.30
2018-09-03T18:28:07.693Z,98833.90
2018-09-03T18:30:36.016Z,98835.96
2018-09-03T18:33:04.412Z,98834.80
2018-09-03T18:35:32.942Z,98836.42
2018-09-03T18:38:01.568Z,98836.52
2018-09-03T18:40:29.813Z,98832.39
2018-09-03T18:42:58.153Z,98837.16
2018-09-03T18:45:26.393Z,98842.52
2018-09-03T18:47:54.866Z,98839.06
2018-09-03T18:50:23.145Z,98845.92
2018-09-03T18:52:51.527Z,98848.66
2018-09-03T18:55:19.862Z,98852.88
2018-09-03T18:57:48.602Z,98855.30
2018-09-03T19:00:16.952Z,98855.29
2018-09-03T19:02:45.695Z,98856.02
2018-09-03T19:05:13.958Z,98856.34
2018-09-03T19:07:42.342Z,98856.14
2018-09-03T19:10:10.644Z,98856.01
2018-09-03T19:12:39.211Z,98857.39
2018-09-03T19:15:07.891Z,98855.88
2018-09-03T19:17:36.284Z,98858.39
2018-09-03T19:20:04.638Z,98860.58
2018-09-03T19:22:32.936Z,98855.72
2018-09-03T19:25:01.357Z,98855.72
2018-09-03T19:27:30.078Z,98858.47
2018-09-03T19:29:58.529Z,98857.31
2018-09-03T19:32:27.019Z,98851.45
2018-09-03T19:34:55.347Z,98853.18
2018-09-03T19:37:23.762Z,98855.58
2018-09-03T19:39:52.059Z,98853.69
2018-09-03T19:42:20.716Z,98851.33
2018-09-03T19:44:49.029Z,98854.55
2018-09-03T19:47:17.418Z,98856.16
2018-09-03T19:49:45.663Z,98854.88
2018-09-03T19:52:14.267Z,98859.26
2018-09-03T19:54:42.721Z,98859.55
2018-09-03T19:57:11.398Z,98851.77
2018-09-03T19:59:41.078Z,98852.05
2018-09-03T20:02:09.480Z,98850.05
2018-09-03T20:04:37.801Z,98847.21
2018-09-03T20:07:06.393Z,98853.35
2018-09-03T20:09:35.198Z,98853.13
2018-09-03T20:12:03.474Z,98857.83
2018-09-03T20:14:31.805Z,98860.39
2018-09-03T20:17:00.122Z,98860.57
2018-09-03T20:19:28.466Z,98863.41
2018-09-03T20:21:57.132Z,98862.94
2018-09-03T20:24:25.500Z,98857.64
2018-09-03T20:26:53.759Z,98863.31
2018-09-03T20:29:22.066Z,98859.55
2018-09-03T20:31:53.172Z,98859.17
2018-09-03T20:34:21.456Z,98853.77
2018-09-03T20:36:49.796Z,98847.58
2018-09-03T20:39:18.424Z,98852.75
2018-09-03T20:41:46.744Z,98851.69
2018-09-03T20:44:16.289Z,98859.88
2018-09-03T20:46:44.657Z,98868.52
2018-09-03T20:49:13.397Z,98854.70
2018-09-03T20:51:41.836Z,98850.37
2018-09-03T20:54:10.094Z,98852.42
2018-09-03T20:56:38.363Z,98849.68
2018-09-03T20:59:06.633Z,98842.22
2018-09-03T21:01:34.973Z,98846.87
2018-09-03T21:04:03.215Z,98845.52
2018-09-03T21:06:31.520Z,98835.64
2018-09-03T21:08:59.801Z,98848.55
2018-09-03T21:11:28.228Z,98846.95
2018-09-03T21:13:56.484Z,98844.35
2018-09-03T21:16:24.805Z,98846.55
2018-09-03T21:18:53.171Z,98851.44
2018-09-03T21:21:21.481Z,98847.56
2018-09-03T21:23:49.715Z,98855.58
2018-09-03T21:26:18.022Z,98852.22
2018-09-03T21:28:46.290Z,98857.25
2018-09-03T21:31:14.565Z,98851.30
2018-09-03T21:33:42.858Z,98849.94
2018-09-03T21:36:11.122Z,98851.02
2018-09-03T21:38:39.415Z,98852.84
2018-09-03T21:41:07.753Z,98853.67
2018-09-03T21:43:36.022Z,98858.76
2018-09-03T21:46:04.338Z,98856.98
2018-09-03T21:48:32.609Z,98856.15
2018-09-03T21:51:00.886Z,98859.17
2018-09-03T21:53:29.237Z,98853.45
2018-09-03T21:55:57.492Z,98850.80
2018-09-03T21:58:25.789Z,98848.11
2018-09-03T22:00:54.012Z,98850.81
2018-09-03T22:03:22.357Z,98844.61
2018-09-03T22:05:50.681Z,98845.64
2018-09-03T22:08:18.942Z,98848.34
2018-09-03T22:10:47.198Z,98844.19
2018-09-03T22:13:15.554Z,98845.45
2018-09-03T22:15:43.816Z,98844.41
2018-09-03T22:18:12.486Z,98846.47
2018-09-03T22:20:40.889Z,98851.18
2018-09-03T22:23:09.409Z,98849.97
2018-09-03T22:25:37.923Z,98846.47
2018-09-03T22:28:06.425Z,98846.29
2018-09-03T22:30:34.792Z,98842.66
2018-09-03T22:33:03.093Z,98842.88
2018-09-03T22:35:31.419Z,98837.81
2018-09-03T22:37:59.821Z,98835.45
2018-09-03T22:40:28.146Z,98837.81
2018-09-03T22:42:56.512Z,98839.86
2018-09-03T22:45:24.819Z,98835.13
2018-09-03T22:47:53.174Z,98831.16
2018-09-03T22:50:21.511Z,98832.79
2018-09-03T22:52:49.831Z,98834.09
2018-09-03T22:55:18.138Z,98826.84
2018-09-03T22:57:46.471Z,98832.09
2018-09-03T23:00:14.798Z,98829.77
2018-09-03T23:02:43.693Z,98831.77
2018-09-03T23:05:12.643Z,98830.69
2018-09-03T23:07:41.012Z,98825.38
2018-09-03T23:10:09.985Z,98824.17
2018-09-03T23:12:38.327Z,98823.11
2018-09-03T23:15:07.400Z,98827.14
2018-09-03T23:17:35.744Z,98815.52
2018-09-03T23:20:04.095Z,98824.97
2018-09-03T23:22:32.426Z,98824.03
2018-09-03T23:25:00.743Z,98823.95
2018-09-03T23:27:29.090Z,98823.80
2018-09-03T23:29:57.780Z,98822.09
2018-09-03T23:32:26.126Z,98823.75
2018-09-03T23:34:54.476Z,98822.92
2018-09-03T23:37:22.827Z,98816.17
2018-09-03T23:39:51.231Z,98819.05
2018-09-03T23:42:19.872Z,98817.66
2018-09-03T23:44:48.226Z,98812.31
2018-09-03T23:47:16.652Z,98810.13
2018-09-03T23:49:45.109Z,98806.73
2018-09-03T23:52:13.405Z,98809.66
2018-09-03T23:54:41.818Z,98807.58
2018-09-03T23:57:10.327Z,98809.80
2018-09-03T23:59:38.708Z,98811.61
